sensor_id;sensor_type;location;lat;lon;timestamp;P1;durP1;ratioP1;P2;durP2;ratioP2
66087;SDS011;52872;52.994;6.940;2023-02-03T00:01:09;6.32;;;1.83;;
66087;SDS011;52872;52.994;6.940;2023-02-03T00:03:36;7.93;;;2.40;;
66087;SDS011;52872;52.994;6.940;2023-02-03T00:06:03;6.07;;;2.20;;
66087;SDS011;52872;52.994;6.940;2023-02-03T00:08:30;3.70;;;1.45;;
66087;SDS011;52872;52.994;6.940;2023-02-03T00:10:57;8.25;;;1.98;;
66087;SDS011;52872;52.994;6.940;2023-02-03T00:13:25;6.60;;;1.85;;
66087;SDS011;52872;52.994;6.940;2023-02-03T00:15:52;7.28;;;2.03;;
66087;SDS011;52872;52.994;6.940;2023-02-03T00:18:19;5.40;;;2.10;;
66087;SDS011;52872;52.994;6.940;2023-02-03T00:20:46;6.85;;;2.03;;
66087;SDS011;52872;52.994;6.940;2023-02-03T00:23:13;5.72;;;2.15;;
66087;SDS011;52872;52.994;6.940;2023-02-03T00:25:40;4.70;;;1.88;;
66087;SDS011;52872;52.994;6.940;2023-02-03T00:28:07;5.85;;;1.88;;
66087;SDS011;52872;52.994;6.940;2023-02-03T00:30:34;9.70;;;2.10;;
66087;SDS011;52872;52.994;6.940;2023-02-03T00:33:03;7.35;;;1.90;;
66087;SDS011;52872;52.994;6.940;2023-02-03T00:35:30;3.88;;;1.60;;
66087;SDS011;52872;52.994;6.940;2023-02-03T00:37:57;8.57;;;1.98;;
66087;SDS011;52872;52.994;6.940;2023-02-03T00:40:24;5.90;;;2.10;;
66087;SDS011;52872;52.994;6.940;2023-02-03T00:42:52;9.73;;;1.98;;
66087;SDS011;52872;52.994;6.940;2023-02-03T00:45:20;5.28;;;1.40;;
66087;SDS011;52872;52.994;6.940;2023-02-03T00:47:48;6.13;;;2.03;;
66087;SDS011;52872;52.994;6.940;2023-02-03T00:50:15;3.95;;;1.52;;
66087;SDS011;52872;52.994;6.940;2023-02-03T00:52:42;7.68;;;2.10;;
66087;SDS011;52872;52.994;6.940;2023-02-03T00:55:09;2.85;;;1.23;;
66087;SDS011;52872;52.994;6.940;2023-02-03T00:57:36;5.03;;;1.92;;
66087;SDS011;52872;52.994;6.940;2023-02-03T01:00:04;4.65;;;1.73;;
66087;SDS011;52872;52.994;6.940;2023-02-03T01:02:32;3.88;;;1.65;;
66087;SDS011;52872;52.994;6.940;2023-02-03T01:04:59;4.78;;;2.00;;
66087;SDS011;52872;52.994;6.940;2023-02-03T01:07:26;3.47;;;1.55;;
66087;SDS011;52872;52.994;6.940;2023-02-03T01:09:52;4.70;;;1.80;;
66087;SDS011;52872;52.994;6.940;2023-02-03T01:12:20;6.95;;;1.70;;
66087;SDS011;52872;52.994;6.940;2023-02-03T01:14:47;3.30;;;1.42;;
66087;SDS011;52872;52.994;6.940;2023-02-03T01:17:15;4.28;;;1.52;;
66087;SDS011;52872;52.994;6.940;2023-02-03T01:19:42;7.55;;;1.83;;
66087;SDS011;52872;52.994;6.940;2023-02-03T01:22:09;4.68;;;1.67;;
66087;SDS011;52872;52.994;6.940;2023-02-03T01:24:36;5.00;;;2.05;;
66087;SDS011;52872;52.994;6.940;2023-02-03T01:27:03;4.95;;;1.70;;
66087;SDS011;52872;52.994;6.940;2023-02-03T01:29:31;8.52;;;1.80;;
66087;SDS011;52872;52.994;6.940;2023-02-03T01:31:58;6.95;;;1.77;;
66087;SDS011;52872;52.994;6.940;2023-02-03T01:34:26;5.80;;;1.90;;
66087;SDS011;52872;52.994;6.940;2023-02-03T01:36:53;9.30;;;2.25;;
66087;SDS011;52872;52.994;6.940;2023-02-03T01:39:20;5.95;;;2.42;;
66087;SDS011;52872;52.994;6.940;2023-02-03T01:41:47;6.40;;;2.10;;
66087;SDS011;52872;52.994;6.940;2023-02-03T01:47:04;7.07;;;1.98;;
66087;SDS011;52872;52.994;6.940;2023-02-03T01:49:45;4.97;;;1.90;;
66087;SDS011;52872;52.994;6.940;2023-02-03T01:52:18;5.88;;;2.00;;
66087;SDS011;52872;52.994;6.940;2023-02-03T01:54:46;8.27;;;2.20;;
66087;SDS011;52872;52.994;6.940;2023-02-03T01:57:19;7.43;;;2.00;;
66087;SDS011;52872;52.994;6.940;2023-02-03T01:59:48;2.97;;;1.50;;
66087;SDS011;52872;52.994;6.940;2023-02-03T02:02:18;5.20;;;1.92;;
66087;SDS011;52872;52.994;6.940;2023-02-03T02:07:24;4.90;;;1.95;;
66087;SDS011;52872;52.994;6.940;2023-02-03T02:09:51;4.18;;;2.10;;
66087;SDS011;52872;52.994;6.940;2023-02-03T02:12:20;5.20;;;1.80;;
66087;SDS011;52872;52.994;6.940;2023-02-03T02:14:47;5.72;;;1.92;;
66087;SDS011;52872;52.994;6.940;2023-02-03T02:17:35;5.93;;;2.03;;
66087;SDS011;52872;52.994;6.940;2023-02-03T02:20:17;5.03;;;2.30;;
66087;SDS011;52872;52.994;6.940;2023-02-03T02:34:26;9.07;;;2.40;;
66087;SDS011;52872;52.994;6.940;2023-02-03T02:40:24;7.88;;;1.75;;
66087;SDS011;52872;52.994;6.940;2023-02-03T02:48:31;6.32;;;1.83;;
66087;SDS011;52872;52.994;6.940;2023-02-03T02:51:04;10.13;;;2.45;;
66087;SDS011;52872;52.994;6.940;2023-02-03T02:53:36;5.65;;;2.08;;
66087;SDS011;52872;52.994;6.940;2023-02-03T02:56:08;8.35;;;1.67;;
66087;SDS011;52872;52.994;6.940;2023-02-03T02:58:40;7.95;;;2.15;;
66087;SDS011;52872;52.994;6.940;2023-02-03T03:01:12;6.78;;;2.00;;
66087;SDS011;52872;52.994;6.940;2023-02-03T03:03:41;6.28;;;1.95;;
66087;SDS011;52872;52.994;6.940;2023-02-03T03:12:29;5.30;;;1.60;;
66087;SDS011;52872;52.994;6.940;2023-02-03T03:14:47;5.72;;;2.13;;
66087;SDS011;52872;52.994;6.940;2023-02-03T03:17:21;8.52;;;1.80;;
66087;SDS011;52872;52.994;6.940;2023-02-03T03:19:56;8.43;;;2.15;;
66087;SDS011;52872;52.994;6.940;2023-02-03T03:22:31;8.43;;;2.00;;
66087;SDS011;52872;52.994;6.940;2023-02-03T03:25:03;7.75;;;2.30;;
66087;SDS011;52872;52.994;6.940;2023-02-03T03:27:37;7.32;;;1.92;;
66087;SDS011;52872;52.994;6.940;2023-02-03T03:30:08;6.05;;;2.20;;
66087;SDS011;52872;52.994;6.940;2023-02-03T03:32:48;5.43;;;1.80;;
66087;SDS011;52872;52.994;6.940;2023-02-03T03:35:16;7.80;;;1.92;;
66087;SDS011;52872;52.994;6.940;2023-02-03T03:37:45;8.20;;;2.08;;
66087;SDS011;52872;52.994;6.940;2023-02-03T03:48:48;6.65;;;2.08;;
66087;SDS011;52872;52.994;6.940;2023-02-03T03:51:32;8.43;;;1.92;;
66087;SDS011;52872;52.994;6.940;2023-02-03T03:54:06;8.23;;;2.35;;
66087;SDS011;52872;52.994;6.940;2023-02-03T03:57:20;4.70;;;1.98;;
66087;SDS011;52872;52.994;6.940;2023-02-03T03:59:40;5.47;;;1.92;;
66087;SDS011;52872;52.994;6.940;2023-02-03T04:02:11;8.40;;;2.13;;
66087;SDS011;52872;52.994;6.940;2023-02-03T04:04:39;8.13;;;2.30;;
66087;SDS011;52872;52.994;6.940;2023-02-03T04:07:08;9.15;;;1.83;;
66087;SDS011;52872;52.994;6.940;2023-02-03T04:09:35;8.27;;;2.00;;
66087;SDS011;52872;52.994;6.940;2023-02-03T04:12:02;6.60;;;1.80;;
66087;SDS011;52872;52.994;6.940;2023-02-03T04:14:33;5.25;;;1.98;;
66087;SDS011;52872;52.994;6.940;2023-02-03T04:17:03;12.25;;;2.35;;
66087;SDS011;52872;52.994;6.940;2023-02-03T04:19:30;10.57;;;2.30;;
66087;SDS011;52872;52.994;6.940;2023-02-03T04:21:57;6.35;;;1.90;;
66087;SDS011;52872;52.994;6.940;2023-02-03T04:24:24;6.60;;;2.28;;
66087;SDS011;52872;52.994;6.940;2023-02-03T04:26:52;7.80;;;2.33;;
66087;SDS011;52872;52.994;6.940;2023-02-03T04:29:19;10.10;;;2.53;;
66087;SDS011;52872;52.994;6.940;2023-02-03T04:31:46;10.35;;;2.20;;
66087;SDS011;52872;52.994;6.940;2023-02-03T04:34:13;6.95;;;1.92;;
66087;SDS011;52872;52.994;6.940;2023-02-03T04:36:40;11.07;;;2.25;;
66087;SDS011;52872;52.994;6.940;2023-02-03T04:39:07;5.13;;;1.90;;
66087;SDS011;52872;52.994;6.940;2023-02-03T04:41:34;8.88;;;2.00;;
66087;SDS011;52872;52.994;6.940;2023-02-03T04:44:01;7.07;;;1.60;;
66087;SDS011;52872;52.994;6.940;2023-02-03T04:46:28;9.85;;;2.60;;
66087;SDS011;52872;52.994;6.940;2023-02-03T04:48:55;6.57;;;1.88;;
66087;SDS011;52872;52.994;6.940;2023-02-03T04:51:22;9.52;;;2.47;;
66087;SDS011;52872;52.994;6.940;2023-02-03T04:53:49;7.40;;;2.78;;
66087;SDS011;52872;52.994;6.940;2023-02-03T04:56:16;10.90;;;2.53;;
66087;SDS011;52872;52.994;6.940;2023-02-03T04:58:43;5.57;;;1.67;;
66087;SDS011;52872;52.994;6.940;2023-02-03T05:01:09;4.95;;;1.90;;
66087;SDS011;52872;52.994;6.940;2023-02-03T05:03:37;12.98;;;2.40;;
66087;SDS011;52872;52.994;6.940;2023-02-03T05:06:04;9.00;;;2.50;;
66087;SDS011;52872;52.994;6.940;2023-02-03T05:08:31;6.90;;;1.83;;
66087;SDS011;52872;52.994;6.940;2023-02-03T05:10:58;10.60;;;2.35;;
66087;SDS011;52872;52.994;6.940;2023-02-03T05:13:27;7.38;;;2.25;;
66087;SDS011;52872;52.994;6.940;2023-02-03T05:15:55;2.78;;;1.73;;
66087;SDS011;52872;52.994;6.940;2023-02-03T05:18:22;6.93;;;1.88;;
66087;SDS011;52872;52.994;6.940;2023-02-03T05:20:49;10.15;;;2.00;;
66087;SDS011;52872;52.994;6.940;2023-02-03T05:23:16;15.00;;;2.53;;
66087;SDS011;52872;52.994;6.940;2023-02-03T05:25:43;9.40;;;2.75;;
66087;SDS011;52872;52.994;6.940;2023-02-03T05:28:10;8.13;;;1.98;;
66087;SDS011;52872;52.994;6.940;2023-02-03T05:30:37;9.38;;;2.80;;
66087;SDS011;52872;52.994;6.940;2023-02-03T05:33:04;12.13;;;2.20;;
66087;SDS011;52872;52.994;6.940;2023-02-03T05:35:31;6.47;;;2.13;;
66087;SDS011;52872;52.994;6.940;2023-02-03T05:37:58;12.68;;;2.40;;
66087;SDS011;52872;52.994;6.940;2023-02-03T05:40:25;7.43;;;2.83;;
66087;SDS011;52872;52.994;6.940;2023-02-03T05:43:11;8.40;;;2.05;;
66087;SDS011;52872;52.994;6.940;2023-02-03T05:45:38;8.77;;;2.47;;
66087;SDS011;52872;52.994;6.940;2023-02-03T05:48:05;11.13;;;2.45;;
66087;SDS011;52872;52.994;6.940;2023-02-03T05:50:33;7.57;;;2.28;;
66087;SDS011;52872;52.994;6.940;2023-02-03T05:53:06;9.68;;;2.35;;
66087;SDS011;52872;52.994;6.940;2023-02-03T05:55:34;6.22;;;2.22;;
66087;SDS011;52872;52.994;6.940;2023-02-03T05:58:01;6.25;;;1.90;;
66087;SDS011;52872;52.994;6.940;2023-02-03T06:00:28;7.55;;;2.88;;
66087;SDS011;52872;52.994;6.940;2023-02-03T06:02:56;7.20;;;2.58;;
66087;SDS011;52872;52.994;6.940;2023-02-03T06:05:25;9.90;;;2.53;;
66087;SDS011;52872;52.994;6.940;2023-02-03T06:07:52;10.18;;;3.10;;
66087;SDS011;52872;52.994;6.940;2023-02-03T06:10:20;7.70;;;2.60;;
66087;SDS011;52872;52.994;6.940;2023-02-03T06:12:48;9.63;;;2.80;;
66087;SDS011;52872;52.994;6.940;2023-02-03T06:15:15;3.95;;;2.70;;
66087;SDS011;52872;52.994;6.940;2023-02-03T06:17:46;9.50;;;3.17;;
66087;SDS011;52872;52.994;6.940;2023-02-03T06:20:14;10.10;;;2.70;;
66087;SDS011;52872;52.994;6.940;2023-02-03T06:22:43;8.75;;;3.28;;
66087;SDS011;52872;52.994;6.940;2023-02-03T06:25:10;7.80;;;3.42;;
66087;SDS011;52872;52.994;6.940;2023-02-03T06:27:39;8.10;;;3.20;;
66087;SDS011;52872;52.994;6.940;2023-02-03T06:30:07;10.40;;;3.10;;
66087;SDS011;52872;52.994;6.940;2023-02-03T06:32:36;7.95;;;3.15;;
66087;SDS011;52872;52.994;6.940;2023-02-03T06:35:03;9.07;;;2.72;;
66087;SDS011;52872;52.994;6.940;2023-02-03T06:37:30;8.40;;;2.83;;
66087;SDS011;52872;52.994;6.940;2023-02-03T06:39:57;10.43;;;2.85;;
66087;SDS011;52872;52.994;6.940;2023-02-03T06:42:24;6.03;;;2.53;;
66087;SDS011;52872;52.994;6.940;2023-02-03T06:44:51;8.57;;;2.90;;
66087;SDS011;52872;52.994;6.940;2023-02-03T06:47:18;11.02;;;3.17;;
66087;SDS011;52872;52.994;6.940;2023-02-03T06:49:45;9.10;;;2.60;;
66087;SDS011;52872;52.994;6.940;2023-02-03T06:52:12;10.35;;;3.15;;
66087;SDS011;52872;52.994;6.940;2023-02-03T06:54:40;9.00;;;3.03;;
66087;SDS011;52872;52.994;6.940;2023-02-03T06:57:07;6.80;;;2.40;;
66087;SDS011;52872;52.994;6.940;2023-02-03T07:07:11;10.17;;;3.83;;
66087;SDS011;52872;52.994;6.940;2023-02-03T07:09:39;12.55;;;3.80;;
66087;SDS011;52872;52.994;6.940;2023-02-03T07:12:06;15.93;;;3.22;;
66087;SDS011;52872;52.994;6.940;2023-02-03T07:14:34;16.27;;;3.17;;
66087;SDS011;52872;52.994;6.940;2023-02-03T07:17:01;8.98;;;3.15;;
66087;SDS011;52872;52.994;6.940;2023-02-03T07:19:28;12.02;;;3.33;;
66087;SDS011;52872;52.994;6.940;2023-02-03T07:21:55;8.07;;;2.85;;
66087;SDS011;52872;52.994;6.940;2023-02-03T07:24:22;13.85;;;3.78;;
66087;SDS011;52872;52.994;6.940;2023-02-03T07:26:49;13.27;;;3.17;;
66087;SDS011;52872;52.994;6.940;2023-02-03T07:29:16;12.20;;;3.83;;
66087;SDS011;52872;52.994;6.940;2023-02-03T07:31:43;9.80;;;3.13;;
66087;SDS011;52872;52.994;6.940;2023-02-03T07:34:10;11.75;;;3.10;;
66087;SDS011;52872;52.994;6.940;2023-02-03T07:36:38;12.82;;;2.92;;
66087;SDS011;52872;52.994;6.940;2023-02-03T07:39:04;9.40;;;2.92;;
66087;SDS011;52872;52.994;6.940;2023-02-03T07:41:31;11.52;;;3.10;;
66087;SDS011;52872;52.994;6.940;2023-02-03T07:43:58;15.02;;;3.08;;
66087;SDS011;52872;52.994;6.940;2023-02-03T07:46:25;14.27;;;3.80;;
66087;SDS011;52872;52.994;6.940;2023-02-03T07:48:52;6.57;;;2.80;;
66087;SDS011;52872;52.994;6.940;2023-02-03T07:51:20;11.63;;;3.63;;
66087;SDS011;52872;52.994;6.940;2023-02-03T07:53:47;10.73;;;3.10;;
66087;SDS011;52872;52.994;6.940;2023-02-03T07:56:14;11.38;;;3.28;;
66087;SDS011;52872;52.994;6.940;2023-02-03T07:58:41;15.48;;;3.83;;
66087;SDS011;52872;52.994;6.940;2023-02-03T08:01:12;13.50;;;3.75;;
66087;SDS011;52872;52.994;6.940;2023-02-03T08:03:41;10.90;;;3.93;;
66087;SDS011;52872;52.994;6.940;2023-02-03T08:06:08;14.27;;;3.53;;
66087;SDS011;52872;52.994;6.940;2023-02-03T08:08:35;11.15;;;3.10;;
66087;SDS011;52872;52.994;6.940;2023-02-03T08:11:02;13.35;;;3.40;;
66087;SDS011;52872;52.994;6.940;2023-02-03T08:13:30;8.07;;;3.45;;
66087;SDS011;52872;52.994;6.940;2023-02-03T08:15:57;12.18;;;3.20;;
66087;SDS011;52872;52.994;6.940;2023-02-03T08:18:24;11.43;;;3.72;;
66087;SDS011;52872;52.994;6.940;2023-02-03T08:20:51;11.30;;;3.63;;
66087;SDS011;52872;52.994;6.940;2023-02-03T08:23:18;15.88;;;3.83;;
66087;SDS011;52872;52.994;6.940;2023-02-03T08:25:49;16.10;;;4.60;;
66087;SDS011;52872;52.994;6.940;2023-02-03T08:28:17;11.00;;;3.70;;
66087;SDS011;52872;52.994;6.940;2023-02-03T08:30:44;12.40;;;3.00;;
66087;SDS011;52872;52.994;6.940;2023-02-03T08:33:11;12.63;;;3.47;;
66087;SDS011;52872;52.994;6.940;2023-02-03T08:35:38;11.38;;;3.47;;
66087;SDS011;52872;52.994;6.940;2023-02-03T08:38:06;19.70;;;4.53;;
66087;SDS011;52872;52.994;6.940;2023-02-03T08:40:32;10.70;;;3.72;;
66087;SDS011;52872;52.994;6.940;2023-02-03T08:43:00;11.85;;;3.53;;
66087;SDS011;52872;52.994;6.940;2023-02-03T08:45:26;12.75;;;3.15;;
66087;SDS011;52872;52.994;6.940;2023-02-03T08:47:54;11.93;;;3.38;;
66087;SDS011;52872;52.994;6.940;2023-02-03T08:50:21;8.98;;;2.90;;
66087;SDS011;52872;52.994;6.940;2023-02-03T08:52:48;6.97;;;3.05;;
66087;SDS011;52872;52.994;6.940;2023-02-03T08:55:15;15.60;;;4.07;;
66087;SDS011;52872;52.994;6.940;2023-02-03T08:57:42;13.40;;;3.58;;
66087;SDS011;52872;52.994;6.940;2023-02-03T09:00:09;14.88;;;3.55;;
66087;SDS011;52872;52.994;6.940;2023-02-03T09:02:37;12.43;;;3.60;;
66087;SDS011;52872;52.994;6.940;2023-02-03T09:05:04;10.02;;;3.60;;
66087;SDS011;52872;52.994;6.940;2023-02-03T09:07:32;17.05;;;4.03;;
66087;SDS011;52872;52.994;6.940;2023-02-03T09:09:59;15.88;;;3.75;;
66087;SDS011;52872;52.994;6.940;2023-02-03T09:12:26;18.55;;;4.03;;
66087;SDS011;52872;52.994;6.940;2023-02-03T09:14:53;14.00;;;3.80;;
66087;SDS011;52872;52.994;6.940;2023-02-03T09:17:20;14.30;;;4.18;;
66087;SDS011;52872;52.994;6.940;2023-02-03T09:19:47;15.25;;;3.70;;
66087;SDS011;52872;52.994;6.940;2023-02-03T09:22:14;21.13;;;4.10;;
66087;SDS011;52872;52.994;6.940;2023-02-03T09:24:41;18.23;;;4.03;;
66087;SDS011;52872;52.994;6.940;2023-02-03T09:27:08;18.98;;;4.30;;
66087;SDS011;52872;52.994;6.940;2023-02-03T09:29:35;22.42;;;4.50;;
66087;SDS011;52872;52.994;6.940;2023-02-03T09:32:03;14.80;;;4.13;;
66087;SDS011;52872;52.994;6.940;2023-02-03T09:34:34;18.73;;;4.35;;
66087;SDS011;52872;52.994;6.940;2023-02-03T09:37:02;17.95;;;3.40;;
66087;SDS011;52872;52.994;6.940;2023-02-03T09:39:29;19.45;;;3.88;;
66087;SDS011;52872;52.994;6.940;2023-02-03T09:47:51;19.92;;;4.40;;
66087;SDS011;52872;52.994;6.940;2023-02-03T09:50:27;17.98;;;3.83;;
66087;SDS011;52872;52.994;6.940;2023-02-03T09:52:57;19.60;;;3.45;;
66087;SDS011;52872;52.994;6.940;2023-02-03T09:55:33;15.25;;;3.60;;
66087;SDS011;52872;52.994;6.940;2023-02-03T09:58:12;15.48;;;3.92;;
66087;SDS011;52872;52.994;6.940;2023-02-03T10:00:49;18.40;;;3.63;;
66087;SDS011;52872;52.994;6.940;2023-02-03T10:03:36;16.63;;;4.65;;
66087;SDS011;52872;52.994;6.940;2023-02-03T10:06:22;19.70;;;4.10;;
66087;SDS011;52872;52.994;6.940;2023-02-03T10:22:39;22.15;;;4.43;;
66087;SDS011;52872;52.994;6.940;2023-02-03T10:27:40;20.48;;;5.00;;
66087;SDS011;52872;52.994;6.940;2023-02-03T10:33:12;17.67;;;4.15;;
66087;SDS011;52872;52.994;6.940;2023-02-03T10:35:47;18.88;;;4.03;;
66087;SDS011;52872;52.994;6.940;2023-02-03T10:38:26;19.80;;;4.27;;
66087;SDS011;52872;52.994;6.940;2023-02-03T10:41:05;22.13;;;4.53;;
66087;SDS011;52872;52.994;6.940;2023-02-03T10:43:32;21.70;;;4.97;;
66087;SDS011;52872;52.994;6.940;2023-02-03T10:46:19;20.58;;;4.00;;
66087;SDS011;52872;52.994;6.940;2023-02-03T10:48:52;13.18;;;3.83;;
66087;SDS011;52872;52.994;6.940;2023-02-03T10:51:22;20.33;;;4.60;;
66087;SDS011;52872;52.994;6.940;2023-02-03T10:53:49;19.00;;;3.85;;
66087;SDS011;52872;52.994;6.940;2023-02-03T10:56:41;22.40;;;4.78;;
66087;SDS011;52872;52.994;6.940;2023-02-03T10:59:09;20.88;;;4.28;;
66087;SDS011;52872;52.994;6.940;2023-02-03T11:01:55;27.70;;;4.40;;
66087;SDS011;52872;52.994;6.940;2023-02-03T11:06:52;23.55;;;4.82;;
66087;SDS011;52872;52.994;6.940;2023-02-03T11:09:32;22.88;;;5.05;;
66087;SDS011;52872;52.994;6.940;2023-02-03T11:12:10;17.13;;;4.35;;
66087;SDS011;52872;52.994;6.940;2023-02-03T11:14:49;21.75;;;4.82;;
66087;SDS011;52872;52.994;6.940;2023-02-03T11:17:18;24.25;;;4.70;;
66087;SDS011;52872;52.994;6.940;2023-02-03T11:19:52;35.72;;;5.88;;
66087;SDS011;52872;52.994;6.940;2023-02-03T11:22:26;25.58;;;4.80;;
66087;SDS011;52872;52.994;6.940;2023-02-03T11:24:54;21.00;;;4.50;;
66087;SDS011;52872;52.994;6.940;2023-02-03T11:27:22;21.73;;;4.60;;
66087;SDS011;52872;52.994;6.940;2023-02-03T11:29:52;25.92;;;5.85;;
66087;SDS011;52872;52.994;6.940;2023-02-03T11:32:40;26.70;;;5.35;;
66087;SDS011;52872;52.994;6.940;2023-02-03T11:35:20;37.83;;;6.07;;
66087;SDS011;52872;52.994;6.940;2023-02-03T11:37:52;27.55;;;5.03;;
66087;SDS011;52872;52.994;6.940;2023-02-03T11:40:23;24.15;;;5.45;;
66087;SDS011;52872;52.994;6.940;2023-02-03T11:45:24;27.40;;;4.90;;
66087;SDS011;52872;52.994;6.940;2023-02-03T11:47:56;26.00;;;5.03;;
66087;SDS011;52872;52.994;6.940;2023-02-03T11:50:38;23.00;;;4.37;;
66087;SDS011;52872;52.994;6.940;2023-02-03T11:56:24;20.38;;;4.18;;
66087;SDS011;52872;52.994;6.940;2023-02-03T11:59:19;22.02;;;4.18;;
66087;SDS011;52872;52.994;6.940;2023-02-03T12:05:01;24.77;;;4.93;;
66087;SDS011;52872;52.994;6.940;2023-02-03T12:13:26;29.90;;;5.13;;
66087;SDS011;52872;52.994;6.940;2023-02-03T12:16:04;19.88;;;3.75;;
66087;SDS011;52872;52.994;6.940;2023-02-03T12:19:00;26.08;;;4.93;;
66087;SDS011;52872;52.994;6.940;2023-02-03T12:21:44;23.70;;;5.18;;
66087;SDS011;52872;52.994;6.940;2023-02-03T12:29:44;18.55;;;4.22;;
66087;SDS011;52872;52.994;6.940;2023-02-03T12:35:20;25.48;;;4.10;;
66087;SDS011;52872;52.994;6.940;2023-02-03T12:38:02;19.45;;;4.28;;
66087;SDS011;52872;52.994;6.940;2023-02-03T12:43:16;27.73;;;4.80;;
66087;SDS011;52872;52.994;6.940;2023-02-03T12:45:53;17.63;;;4.88;;
66087;SDS011;52872;52.994;6.940;2023-02-03T12:49:09;18.35;;;4.50;;
66087;SDS011;52872;52.994;6.940;2023-02-03T12:54:32;21.25;;;4.35;;
66087;SDS011;52872;52.994;6.940;2023-02-03T12:57:21;15.05;;;3.55;;
66087;SDS011;52872;52.994;6.940;2023-02-03T13:00:09;17.90;;;4.25;;
66087;SDS011;52872;52.994;6.940;2023-02-03T13:02:58;17.40;;;3.55;;
66087;SDS011;52872;52.994;6.940;2023-02-03T13:05:41;12.48;;;3.20;;
66087;SDS011;52872;52.994;6.940;2023-02-03T13:08:11;11.93;;;4.15;;
66087;SDS011;52872;52.994;6.940;2023-02-03T13:10:54;13.02;;;3.63;;
66087;SDS011;52872;52.994;6.940;2023-02-03T13:13:30;15.40;;;3.58;;
66087;SDS011;52872;52.994;6.940;2023-02-03T13:16:05;15.88;;;4.00;;
66087;SDS011;52872;52.994;6.940;2023-02-03T13:18:34;26.33;;;4.03;;
66087;SDS011;52872;52.994;6.940;2023-02-03T13:21:11;19.38;;;4.10;;
66087;SDS011;52872;52.994;6.940;2023-02-03T13:23:41;10.38;;;3.67;;
66087;SDS011;52872;52.994;6.940;2023-02-03T13:37:54;16.65;;;3.88;;
66087;SDS011;52872;52.994;6.940;2023-02-03T13:43:42;22.98;;;4.40;;
66087;SDS011;52872;52.994;6.940;2023-02-03T13:46:19;23.70;;;5.63;;
66087;SDS011;52872;52.994;6.940;2023-02-03T13:48:52;28.40;;;6.00;;
66087;SDS011;52872;52.994;6.940;2023-02-03T13:51:32;26.35;;;4.95;;
66087;SDS011;52872;52.994;6.940;2023-02-03T13:54:03;19.88;;;4.15;;
66087;SDS011;52872;52.994;6.940;2023-02-03T13:56:33;25.75;;;5.32;;
66087;SDS011;52872;52.994;6.940;2023-02-03T14:04:03;21.27;;;4.95;;
66087;SDS011;52872;52.994;6.940;2023-02-03T14:12:20;31.13;;;5.93;;
66087;SDS011;52872;52.994;6.940;2023-02-03T14:14:57;21.17;;;4.72;;
66087;SDS011;52872;52.994;6.940;2023-02-03T14:20:01;15.35;;;3.55;;
66087;SDS011;52872;52.994;6.940;2023-02-03T14:22:30;19.70;;;4.47;;
66087;SDS011;52872;52.994;6.940;2023-02-03T14:25:03;16.17;;;4.10;;
66087;SDS011;52872;52.994;6.940;2023-02-03T14:27:32;21.95;;;4.90;;
66087;SDS011;52872;52.994;6.940;2023-02-03T14:32:47;19.25;;;4.47;;
66087;SDS011;52872;52.994;6.940;2023-02-03T14:35:21;15.77;;;4.00;;
66087;SDS011;52872;52.994;6.940;2023-02-03T14:37:51;19.27;;;4.07;;
66087;SDS011;52872;52.994;6.940;2023-02-03T14:57:12;15.70;;;3.90;;
66087;SDS011;52872;52.994;6.940;2023-02-03T15:00:07;18.50;;;3.28;;
66087;SDS011;52872;52.994;6.940;2023-02-03T15:05:44;19.83;;;3.88;;
66087;SDS011;52872;52.994;6.940;2023-02-03T15:14:16;16.80;;;3.85;;
66087;SDS011;52872;52.994;6.940;2023-02-03T15:16:52;14.38;;;3.45;;
66087;SDS011;52872;52.994;6.940;2023-02-03T15:19:25;21.58;;;4.65;;
66087;SDS011;52872;52.994;6.940;2023-02-03T15:21:54;27.17;;;4.95;;
66087;SDS011;52872;52.994;6.940;2023-02-03T15:24:21;22.40;;;4.63;;
66087;SDS011;52872;52.994;6.940;2023-02-03T15:26:50;11.55;;;3.58;;
66087;SDS011;52872;52.994;6.940;2023-02-03T15:29:28;17.15;;;3.38;;
66087;SDS011;52872;52.994;6.940;2023-02-03T15:34:36;10.37;;;3.13;;
66087;SDS011;52872;52.994;6.940;2023-02-03T15:37:08;18.27;;;3.25;;
66087;SDS011;52872;52.994;6.940;2023-02-03T15:39:47;24.60;;;4.63;;
66087;SDS011;52872;52.994;6.940;2023-02-03T15:42:50;24.40;;;4.63;;
66087;SDS011;52872;52.994;6.940;2023-02-03T15:45:32;23.27;;;4.88;;
66087;SDS011;52872;52.994;6.940;2023-02-03T15:48:03;19.85;;;3.85;;
66087;SDS011;52872;52.994;6.940;2023-02-03T15:50:34;17.27;;;5.28;;
66087;SDS011;52872;52.994;6.940;2023-02-03T15:53:23;20.10;;;5.05;;
66087;SDS011;52872;52.994;6.940;2023-02-03T15:56:16;18.05;;;4.00;;
66087;SDS011;52872;52.994;6.940;2023-02-03T15:58:47;16.45;;;3.63;;
66087;SDS011;52872;52.994;6.940;2023-02-03T16:01:15;17.35;;;4.05;;
66087;SDS011;52872;52.994;6.940;2023-02-03T16:03:48;20.63;;;3.88;;
66087;SDS011;52872;52.994;6.940;2023-02-03T16:06:27;11.32;;;3.08;;
66087;SDS011;52872;52.994;6.940;2023-02-03T16:09:01;13.27;;;2.88;;
66087;SDS011;52872;52.994;6.940;2023-02-03T16:11:33;18.05;;;3.35;;
66087;SDS011;52872;52.994;6.940;2023-02-03T16:14:05;12.30;;;3.72;;
66087;SDS011;52872;52.994;6.940;2023-02-03T16:16:40;19.55;;;4.53;;
66087;SDS011;52872;52.994;6.940;2023-02-03T16:19:30;12.38;;;3.22;;
66087;SDS011;52872;52.994;6.940;2023-02-03T16:21:59;16.13;;;3.70;;
66087;SDS011;52872;52.994;6.940;2023-02-03T16:24:40;21.17;;;3.50;;
66087;SDS011;52872;52.994;6.940;2023-02-03T16:29:47;13.30;;;3.47;;
66087;SDS011;52872;52.994;6.940;2023-02-03T16:32:33;18.52;;;4.10;;
66087;SDS011;52872;52.994;6.940;2023-02-03T16:35:18;20.88;;;4.07;;
66087;SDS011;52872;52.994;6.940;2023-02-03T16:38:05;22.98;;;4.40;;
66087;SDS011;52872;52.994;6.940;2023-02-03T16:41:01;20.75;;;3.97;;
66087;SDS011;52872;52.994;6.940;2023-02-03T16:43:56;21.55;;;3.97;;
66087;SDS011;52872;52.994;6.940;2023-02-03T16:46:42;22.88;;;5.07;;
66087;SDS011;52872;52.994;6.940;2023-02-03T16:49:28;26.40;;;6.25;;
66087;SDS011;52872;52.994;6.940;2023-02-03T16:52:14;21.25;;;5.60;;
66087;SDS011;52872;52.994;6.940;2023-02-03T16:54:41;20.73;;;5.07;;
66087;SDS011;52872;52.994;6.940;2023-02-03T16:57:08;25.95;;;4.22;;
66087;SDS011;52872;52.994;6.940;2023-02-03T16:59:35;28.52;;;9.32;;
66087;SDS011;52872;52.994;6.940;2023-02-03T17:02:02;15.98;;;4.32;;
66087;SDS011;52872;52.994;6.940;2023-02-03T17:04:28;19.52;;;5.68;;
66087;SDS011;52872;52.994;6.940;2023-02-03T17:06:57;34.47;;;12.75;;
66087;SDS011;52872;52.994;6.940;2023-02-03T17:09:24;35.45;;;16.63;;
66087;SDS011;52872;52.994;6.940;2023-02-03T17:11:51;29.50;;;9.95;;
66087;SDS011;52872;52.994;6.940;2023-02-03T17:14:18;19.42;;;4.43;;
66087;SDS011;52872;52.994;6.940;2023-02-03T17:16:45;22.08;;;4.15;;
66087;SDS011;52872;52.994;6.940;2023-02-03T17:19:12;21.92;;;4.10;;
66087;SDS011;52872;52.994;6.940;2023-02-03T17:21:39;17.23;;;3.38;;
66087;SDS011;52872;52.994;6.940;2023-02-03T17:24:06;17.02;;;3.33;;
66087;SDS011;52872;52.994;6.940;2023-02-03T17:26:34;16.23;;;4.35;;
66087;SDS011;52872;52.994;6.940;2023-02-03T17:29:01;25.02;;;4.68;;
66087;SDS011;52872;52.994;6.940;2023-02-03T17:31:29;16.98;;;4.78;;
66087;SDS011;52872;52.994;6.940;2023-02-03T17:33:56;24.20;;;4.40;;
66087;SDS011;52872;52.994;6.940;2023-02-03T17:36:24;24.00;;;4.07;;
66087;SDS011;52872;52.994;6.940;2023-02-03T17:38:52;17.38;;;3.60;;
66087;SDS011;52872;52.994;6.940;2023-02-03T17:41:40;18.60;;;3.67;;
66087;SDS011;52872;52.994;6.940;2023-02-03T17:44:24;18.88;;;3.42;;
66087;SDS011;52872;52.994;6.940;2023-02-03T17:47:09;13.95;;;4.07;;
66087;SDS011;52872;52.994;6.940;2023-02-03T17:52:37;19.53;;;3.60;;
66087;SDS011;52872;52.994;6.940;2023-02-03T17:55:22;18.27;;;4.47;;